sensor_id;sensor_type;location;lat;lon;timestamp;pressure;altitude;pressure_sealevel;temperature;humidity
51123;BME280;37162;41.724;13.346;2023-04-15T00:02:13;96091.53;;;16.96;62.35
51123;BME280;37162;41.724;13.346;2023-04-15T00:04:39;96098.50;;;16.97;62.11
51123;BME280;37162;41.724;13.346;2023-04-15T00:07:04;96092.31;;;16.97;62.11
51123;BME280;37162;41.724;13.346;2023-04-15T00:09:30;96088.84;;;16.96;62.28
51123;BME280;37162;41.724;13.346;2023-04-15T00:11:55;96089.66;;;16.97;62.31
51123;BME280;37162;41.724;13.346;2023-04-15T00:14:21;96085.34;;;16.96;62.16
51123;BME280;37162;41.724;13.346;2023-04-15T00:16:47;96083.47;;;16.96;62.20
51123;BME280;37162;41.724;13.346;2023-04-15T00:19:19;96071.94;;;16.96;62.18
51123;BME280;37162;41.724;13.346;2023-04-15T00:21:44;96071.94;;;16.96;62.29
51123;BME280;37162;41.724;13.346;2023-04-15T00:24:10;96064.94;;;16.95;62.50
51123;BME280;37162;41.724;13.346;2023-04-15T00:26:35;96066.56;;;16.96;62.30
51123;BME280;37162;41.724;13.346;2023-04-15T00:29:01;96066.56;;;16.96;62.19
51123;BME280;37162;41.724;13.346;2023-04-15T00:31:27;96069.25;;;16.96;62.38
51123;BME280;37162;41.724;13.346;2023-04-15T00:33:52;96071.13;;;16.95;62.45
51123;BME280;37162;41.724;13.346;2023-04-15T00:36:17;96069.25;;;16.96;62.37
51123;BME280;37162;41.724;13.346;2023-04-15T00:38:43;96077.03;;;16.97;62.49
51123;BME280;37162;41.724;13.346;2023-04-15T00:41:09;96069.78;;;16.98;63.01
51123;BME280;37162;41.724;13.346;2023-04-15T00:43:35;96075.97;;;16.98;62.67
51123;BME280;37162;41.724;13.346;2023-04-15T00:46:03;96067.09;;;16.98;62.56
51123;BME280;37162;41.724;13.346;2023-04-15T00:48:29;96068.97;;;16.97;62.47
51123;BME280;37162;41.724;13.346;2023-04-15T00:50:54;96055.56;;;16.97;62.49
51123;BME280;37162;41.724;13.346;2023-04-15T00:53:20;96052.06;;;16.97;62.21
51123;BME280;37162;41.724;13.346;2023-04-15T00:55:46;96049.38;;;16.97;62.41
51123;BME280;37162;41.724;13.346;2023-04-15T00:58:11;96046.72;;;16.97;62.08
51123;BME280;37162;41.724;13.346;2023-04-15T01:00:37;96034.09;;;16.97;62.12
51123;BME280;37162;41.724;13.346;2023-04-15T01:03:02;96019.06;;;16.96;62.18
51123;BME280;37162;41.724;13.346;2023-04-15T01:05:28;96030.59;;;16.97;61.97
51123;BME280;37162;41.724;13.346;2023-04-15T01:07:54;96023.63;;;16.96;62.13
51123;BME280;37162;41.724;13.346;2023-04-15T01:10:20;96024.44;;;16.96;62.01
51123;BME280;37162;41.724;13.346;2023-04-15T01:12:46;96004.78;;;16.91;62.09
51123;BME280;37162;41.724;13.346;2023-04-15T01:15:12;96015.00;;;16.94;61.90
51123;BME280;37162;41.724;13.346;2023-04-15T01:17:38;96006.72;;;16.95;62.31
51123;BME280;37162;41.724;13.346;2023-04-15T01:20:04;96005.91;;;16.95;61.87
51123;BME280;37162;41.724;13.346;2023-04-15T01:22:32;96008.59;;;16.95;61.79
51123;BME280;37162;41.724;13.346;2023-04-15T01:25:06;96007.78;;;16.94;61.66
51123;BME280;37162;41.724;13.346;2023-04-15T01:27:34;96004.28;;;16.94;61.85
51123;BME280;37162;41.724;13.346;2023-04-15T01:30:03;95998.91;;;16.94;61.97
51123;BME280;37162;41.724;13.346;2023-04-15T01:32:29;96000.78;;;16.93;62.37
51123;BME280;37162;41.724;13.346;2023-04-15T01:34:55;96008.03;;;16.93;62.53
51123;BME280;37162;41.724;13.346;2023-04-15T01:37:20;96006.16;;;16.93;62.53
51123;BME280;37162;41.724;13.346;2023-04-15T01:39:46;96002.91;;;16.91;62.76
51123;BME280;37162;41.724;13.346;2023-04-15T01:42:11;95998.56;;;16.85;62.88
51123;BME280;37162;41.724;13.346;2023-04-15T01:44:37;96013.38;;;16.93;62.68
51123;BME280;37162;41.724;13.346;2023-04-15T01:47:02;96019.00;;;16.91;62.29
51123;BME280;37162;41.724;13.346;2023-04-15T01:49:27;96018.22;;;16.91;62.10
51123;BME280;37162;41.724;13.346;2023-04-15T01:51:53;96030.56;;;16.92;62.12
51123;BME280;37162;41.724;13.346;2023-04-15T01:54:19;96026.00;;;16.92;62.13
51123;BME280;37162;41.724;13.346;2023-04-15T01:56:44;96029.75;;;16.91;62.02
51123;BME280;37162;41.724;13.346;2023-04-15T01:59:09;96028.94;;;16.91;62.22
51123;BME280;37162;41.724;13.346;2023-04-15T02:01:35;96006.56;;;16.80;62.02
51123;BME280;37162;41.724;13.346;2023-04-15T02:04:01;96020.09;;;16.90;62.76
51123;BME280;37162;41.724;13.346;2023-04-15T02:06:26;96010.16;;;16.91;63.13
51123;BME280;37162;41.724;13.346;2023-04-15T02:08:52;96009.84;;;16.87;62.39
51123;BME280;37162;41.724;13.346;2023-04-15T02:11:17;96009.84;;;16.87;62.00
51123;BME280;37162;41.724;13.346;2023-04-15T02:13:44;96004.47;;;16.87;61.84
51123;BME280;37162;41.724;13.346;2023-04-15T02:16:18;96001.78;;;16.87;61.84
51123;BME280;37162;41.724;13.346;2023-04-15T02:18:45;96005.28;;;16.88;61.87
51123;BME280;37162;41.724;13.346;2023-04-15T02:21:11;96001.53;;;16.89;61.85
51123;BME280;37162;41.724;13.346;2023-04-15T02:23:36;95995.34;;;16.88;62.01
51123;BME280;37162;41.724;13.346;2023-04-15T02:26:02;95991.88;;;16.88;61.64
51123;BME280;37162;41.724;13.346;2023-04-15T02:28:27;95976.78;;;16.81;61.67
51123;BME280;37162;41.724;13.346;2023-04-15T02:30:53;95976.34;;;16.90;61.96
51123;BME280;37162;41.724;13.346;2023-04-15T02:33:21;95968.53;;;16.88;62.42
51123;BME280;37162;41.724;13.346;2023-04-15T02:35:46;95976.34;;;16.90;62.10
51123;BME280;37162;41.724;13.346;2023-04-15T02:38:12;95967.22;;;16.91;62.17
51123;BME280;37162;41.724;13.346;2023-04-15T02:40:38;95966.41;;;16.90;62.32
51123;BME280;37162;41.724;13.346;2023-04-15T02:43:04;95968.03;;;16.91;62.41
51123;BME280;37162;41.724;13.346;2023-04-15T02:45:31;95962.66;;;16.91;62.42
51123;BME280;37162;41.724;13.346;2023-04-15T02:47:57;95954.63;;;16.91;62.33
51123;BME280;37162;41.724;13.346;2023-04-15T02:50:22;95947.00;;;16.83;62.10
51123;BME280;37162;41.724;13.346;2023-04-15T02:52:49;95963.16;;;16.88;62.07
51123;BME280;37162;41.724;13.346;2023-04-15T02:55:16;95955.59;;;16.80;61.92
51123;BME280;37162;41.724;13.346;2023-04-15T02:57:42;95959.34;;;16.84;61.85
51123;BME280;37162;41.724;13.346;2023-04-15T03:00:08;95967.22;;;16.91;61.90
51123;BME280;37162;41.724;13.346;2023-04-15T03:02:36;95965.63;;;16.90;61.84
51123;BME280;37162;41.724;13.346;2023-04-15T03:05:03;95963.75;;;16.90;61.76
51123;BME280;37162;41.724;13.346;2023-04-15T03:07:30;95962.94;;;16.90;61.99
51123;BME280;37162;41.724;13.346;2023-04-15T03:09:55;95961.88;;;16.91;61.80
51123;BME280;37162;41.724;13.346;2023-04-15T03:12:21;95953.81;;;16.91;61.89
51123;BME280;37162;41.724;13.346;2023-04-15T03:14:46;95940.34;;;16.85;61.96
51123;BME280;37162;41.724;13.346;2023-04-15T03:17:12;95947.88;;;16.89;61.61
51123;BME280;37162;41.724;13.346;2023-04-15T03:19:37;95952.44;;;16.88;61.84
51123;BME280;37162;41.724;13.346;2023-04-15T03:22:02;95951.41;;;16.89;61.88
51123;BME280;37162;41.724;13.346;2023-04-15T03:24:28;95952.44;;;16.88;61.78
51123;BME280;37162;41.724;13.346;2023-04-15T03:26:57;95954.06;;;16.89;61.69
51123;BME280;37162;41.724;13.346;2023-04-15T03:29:23;95957.00;;;16.88;61.82
51123;BME280;37162;41.724;13.346;2023-04-15T03:31:48;95952.94;;;16.85;61.92
51123;BME280;37162;41.724;13.346;2023-04-15T03:34:14;95966.66;;;16.89;61.95
51123;BME280;37162;41.724;13.346;2023-04-15T03:36:40;95968.28;;;16.90;62.07
51123;BME280;37162;41.724;13.346;2023-04-15T03:39:05;95965.63;;;16.90;62.10
51123;BME280;37162;41.724;13.346;2023-04-15T03:41:30;95970.16;;;16.89;62.28
51123;BME280;37162;41.724;13.346;2023-04-15T03:43:57;95968.28;;;16.90;62.15
51123;BME280;37162;41.724;13.346;2023-04-15T03:46:22;95953.94;;;16.79;62.03
51123;BME280;37162;41.724;13.346;2023-04-15T03:48:48;95969.34;;;16.89;61.78
51123;BME280;37162;41.724;13.346;2023-04-15T03:51:13;95970.97;;;16.90;62.19
51123;BME280;37162;41.724;13.346;2023-04-15T03:53:38;95967.72;;;16.88;62.19
51123;BME280;37162;41.724;13.346;2023-04-15T03:56:04;95975.78;;;16.88;62.10
51123;BME280;37162;41.724;13.346;2023-04-15T03:58:30;95976.28;;;16.84;62.72
51123;BME280;37162;41.724;13.346;2023-04-15T04:00:55;95988.63;;;16.85;62.38
51123;BME280;37162;41.724;13.346;2023-04-15T04:03:21;95985.97;;;16.85;62.23
51123;BME280;37162;41.724;13.346;2023-04-15T04:05:46;95973.59;;;16.84;62.02
51123;BME280;37162;41.724;13.346;2023-04-15T04:08:12;95982.47;;;16.85;61.97
51123;BME280;37162;41.724;13.346;2023-04-15T04:10:41;95987.25;;;16.83;61.85
51123;BME280;37162;41.724;13.346;2023-04-15T04:13:06;95970.28;;;16.77;61.96
51123;BME280;37162;41.724;13.346;2023-04-15T04:15:32;95982.97;;;16.82;61.82
51123;BME280;37162;41.724;13.346;2023-04-15T04:17:57;95988.31;;;16.82;61.95
51123;BME280;37162;41.724;13.346;2023-04-15T04:20:22;95983.22;;;16.80;61.74
51123;BME280;37162;41.724;13.346;2023-04-15T04:22:48;95976.47;;;16.78;61.92
51123;BME280;37162;41.724;13.346;2023-04-15T04:25:14;95976.22;;;16.79;61.74
51123;BME280;37162;41.724;13.346;2023-04-15T04:27:39;95972.50;;;16.80;62.02
51123;BME280;37162;41.724;13.346;2023-04-15T04:30:05;95969.81;;;16.80;61.89
51123;BME280;37162;41.724;13.346;2023-04-15T04:32:31;95969.81;;;16.80;62.13
51123;BME280;37162;41.724;13.346;2023-04-15T04:34:56;95957.38;;;16.74;62.14
51123;BME280;37162;41.724;13.346;2023-04-15T04:37:22;95964.44;;;16.80;62.35
51123;BME280;37162;41.724;13.346;2023-04-15T04:39:48;95964.44;;;16.80;62.21
51123;BME280;37162;41.724;13.346;2023-04-15T04:42:14;95969.53;;;16.82;62.52
51123;BME280;37162;41.724;13.346;2023-04-15T04:44:39;95966.31;;;16.80;62.43
51123;BME280;37162;41.724;13.346;2023-04-15T04:47:05;95973.03;;;16.82;62.26
51123;BME280;37162;41.724;13.346;2023-04-15T04:49:31;95969.00;;;16.80;61.96
51123;BME280;37162;41.724;13.346;2023-04-15T04:51:57;95970.34;;;16.82;61.95
51123;BME280;37162;41.724;13.346;2023-04-15T04:54:22;95964.97;;;16.82;62.01
51123;BME280;37162;41.724;13.346;2023-04-15T04:56:48;95962.56;;;16.81;61.68
51123;BME280;37162;41.724;13.346;2023-04-15T04:59:13;95961.75;;;16.80;61.76
51123;BME280;37162;41.724;13.346;2023-04-15T05:01:39;95966.31;;;16.80;61.97
51123;BME280;37162;41.724;13.346;2023-04-15T05:04:05;95967.94;;;16.81;61.68
51123;BME280;37162;41.724;13.346;2023-04-15T05:06:32;95967.94;;;16.81;61.80
51123;BME280;37162;41.724;13.346;2023-04-15T05:08:57;95967.13;;;16.80;61.74
51123;BME280;37162;41.724;13.346;2023-04-15T05:11:23;95968.16;;;16.79;61.61
51123;BME280;37162;41.724;13.346;2023-04-15T05:13:48;95960.09;;;16.79;61.56
51123;BME280;37162;41.724;13.346;2023-04-15T05:16:13;95952.06;;;16.79;61.83
51123;BME280;37162;41.724;13.346;2023-04-15T05:18:39;95950.44;;;16.78;61.70
51123;BME280;37162;41.724;13.346;2023-04-15T05:21:05;95949.66;;;16.78;61.74
51123;BME280;37162;41.724;13.346;2023-04-15T05:23:31;95944.28;;;16.78;61.80
51123;BME280;37162;41.724;13.346;2023-04-15T05:25:56;95938.09;;;16.77;61.71
51123;BME280;37162;41.724;13.346;2023-04-15T05:28:22;95937.03;;;16.78;61.85
51123;BME280;37162;41.724;13.346;2023-04-15T05:30:47;95939.72;;;16.78;61.80
51123;BME280;37162;41.724;13.346;2023-04-15T05:33:13;95917.41;;;16.73;61.95
51123;BME280;37162;41.724;13.346;2023-04-15T05:35:38;95937.03;;;16.78;62.23
51123;BME280;37162;41.724;13.346;2023-04-15T05:38:03;95938.66;;;16.79;62.08
51123;BME280;37162;41.724;13.346;2023-04-15T05:40:29;95915.53;;;16.73;62.17
51123;BME280;37162;41.724;13.346;2023-04-15T05:42:55;95920.09;;;16.73;62.28
51123;BME280;37162;41.724;13.346;2023-04-15T05:45:21;95926.06;;;16.80;62.26
51123;BME280;37162;41.724;13.346;2023-04-15T05:47:46;95926.88;;;16.80;61.94
51123;BME280;37162;41.724;13.346;2023-04-15T05:50:14;95926.56;;;16.77;62.03
51123;BME280;37162;41.724;13.346;2023-04-15T05:52:40;95925.25;;;16.79;61.81
51123;BME280;37162;41.724;13.346;2023-04-15T05:55:05;95927.69;;;16.81;61.93
51123;BME280;37162;41.724;13.346;2023-04-15T05:57:31;95926.06;;;16.80;62.15
51123;BME280;37162;41.724;13.346;2023-04-15T05:59:56;95920.72;;;16.80;61.93
51123;BME280;37162;41.724;13.346;2023-04-15T06:02:22;95921.53;;;16.80;61.96
51123;BME280;37162;41.724;13.346;2023-04-15T06:04:47;95922.56;;;16.79;62.06
51123;BME280;37162;41.724;13.346;2023-04-15T06:07:13;95919.31;;;16.77;61.70
51123;BME280;37162;41.724;13.346;2023-04-15T06:09:38;95923.63;;;16.78;61.86
51123;BME280;37162;41.724;13.346;2023-04-15T06:12:04;95926.06;;;16.80;61.85
51123;BME280;37162;41.724;13.346;2023-04-15T06:14:31;95919.88;;;16.79;61.75
51123;BME280;37162;41.724;13.346;2023-04-15T06:16:56;95918.25;;;16.78;61.78
51123;BME280;37162;41.724;13.346;2023-04-15T06:19:21;95911.28;;;16.77;61.61
51123;BME280;37162;41.724;13.346;2023-04-15T06:21:47;95910.22;;;16.78;61.63
51123;BME280;37162;41.724;13.346;2023-04-15T06:24:12;95902.44;;;16.77;61.81
51123;BME280;37162;41.724;13.346;2023-04-15T06:26:38;95897.81;;;16.72;61.78
51123;BME280;37162;41.724;13.346;2023-04-15T06:29:03;95898.13;;;16.76;61.81
51123;BME280;37162;41.724;13.346;2023-04-15T06:31:29;95895.44;;;16.76;61.94
51123;BME280;37162;41.724;13.346;2023-04-15T06:33:54;95900.81;;;16.76;61.86
51123;BME280;37162;41.724;13.346;2023-04-15T06:36:20;95906.19;;;16.76;62.04
51123;BME280;37162;41.724;13.346;2023-04-15T06:38:45;95898.28;;;16.69;62.17
51123;BME280;37162;41.724;13.346;2023-04-15T06:41:11;95906.19;;;16.76;62.25
51123;BME280;37162;41.724;13.346;2023-04-15T06:43:37;95912.34;;;16.76;62.08
51123;BME280;37162;41.724;13.346;2023-04-15T06:46:03;95911.78;;;16.74;62.02
51123;BME280;37162;41.724;13.346;2023-04-15T06:48:28;95920.41;;;16.76;62.07
51123;BME280;37162;41.724;13.346;2023-04-15T06:50:54;95916.09;;;16.75;63.16
51123;BME280;37162;41.724;13.346;2023-04-15T06:53:20;95906.34;;;16.69;62.87
51123;BME280;37162;41.724;13.346;2023-04-15T06:55:46;95918.22;;;16.73;62.62
51123;BME280;37162;41.724;13.346;2023-04-15T06:58:11;95916.59;;;16.72;62.98
51123;BME280;37162;41.724;13.346;2023-04-15T07:00:37;95923.84;;;16.72;62.58
51123;BME280;37162;41.724;13.346;2023-04-15T07:03:03;95913.34;;;16.70;62.57
51123;BME280;37162;41.724;13.346;2023-04-15T07:05:29;95904.44;;;16.70;62.51
51123;BME280;37162;41.724;13.346;2023-04-15T07:07:56;95892.91;;;16.69;62.40
51123;BME280;37162;41.724;13.346;2023-04-15T07:10:22;95893.72;;;16.70;62.45
51123;BME280;37162;41.724;13.346;2023-04-15T07:12:48;95906.34;;;16.69;62.43
51123;BME280;37162;41.724;13.346;2023-04-15T07:15:14;95889.44;;;16.69;62.38
51123;BME280;37162;41.724;13.346;2023-04-15T07:17:40;95900.97;;;16.69;62.64
51123;BME280;37162;41.724;13.346;2023-04-15T07:20:07;95899.34;;;16.68;62.35
51123;BME280;37162;41.724;13.346;2023-04-15T07:22:33;95898.53;;;16.68;62.44
51123;BME280;37162;41.724;13.346;2023-04-15T07:24:59;95887.19;;;16.60;62.45
51123;BME280;37162;41.724;13.346;2023-04-15T07:27:24;95898.53;;;16.68;62.46
51123;BME280;37162;41.724;13.346;2023-04-15T07:29:50;95898.53;;;16.68;62.57
51123;BME280;37162;41.724;13.346;2023-04-15T07:32:16;95903.09;;;16.67;62.53
51123;BME280;37162;41.724;13.346;2023-04-15T07:34:42;95908.47;;;16.67;62.58
51123;BME280;37162;41.724;13.346;2023-04-15T07:37:08;95898.53;;;16.68;62.42
51123;BME280;37162;41.724;13.346;2023-04-15T07:39:33;95901.22;;;16.68;62.55
51123;BME280;37162;41.724;13.346;2023-04-15T07:41:58;95891.31;;;16.68;62.63
51123;BME280;37162;41.724;13.346;2023-04-15T07:44:25;95887.56;;;16.69;62.47
51123;BME280;37162;41.724;13.346;2023-04-15T07:46:51;95884.88;;;16.69;62.66
51123;BME280;37162;41.724;13.346;2023-04-15T07:49:16;95871.94;;;16.61;62.65
51123;BME280;37162;41.724;13.346;2023-04-15T07:51:43;95877.59;;;16.65;62.57
51123;BME280;37162;41.724;13.346;2023-04-15T08:06:49;95901.31;;;17.27;60.22
51123;BME280;37162;41.724;13.346;2023-04-15T08:09:15;95900.34;;;17.11;60.83
51123;BME280;37162;41.724;13.346;2023-04-15T08:11:40;95894.34;;;16.99;61.16
51123;BME280;37162;41.724;13.346;2023-04-15T08:14:06;95892.59;;;16.88;61.51
51123;BME280;37162;41.724;13.346;2023-04-15T08:16:32;95889.38;;;16.85;61.72
51123;BME280;37162;41.724;13.346;2023-04-15T08:18:57;95876.41;;;16.77;61.81
51123;BME280;37162;41.724;13.346;2023-04-15T08:21:23;95877.97;;;16.73;62.02
51123;BME280;37162;41.724;13.346;2023-04-15T08:23:50;95902.97;;;16.79;61.98
51123;BME280;37162;41.724;13.346;2023-04-15T08:26:16;95894.38;;;16.77;62.21
51123;BME280;37162;41.724;13.346;2023-04-15T08:28:43;95890.91;;;16.76;62.25
51123;BME280;37162;41.724;13.346;2023-04-15T08:31:08;95881.22;;;16.75;62.07
51123;BME280;37162;41.724;13.346;2023-04-15T08:33:34;95880.66;;;16.73;62.21
51123;BME280;37162;41.724;13.346;2023-04-15T08:36:00;95883.34;;;16.73;62.49
51123;BME280;37162;41.724;13.346;2023-04-15T08:38:25;95878.78;;;16.74;62.59
51123;BME280;37162;41.724;13.346;2023-04-15T08:40:50;95875.28;;;16.73;62.37
51123;BME280;37162;41.724;13.346;2023-04-15T08:43:28;95882.72;;;16.66;62.71
51123;BME280;37162;41.724;13.346;2023-04-15T08:45:58;95894.56;;;16.70;62.72
51123;BME280;37162;41.724;13.346;2023-04-15T08:48:27;95897.00;;;16.72;62.50
51123;BME280;37162;41.724;13.346;2023-04-15T08:50:53;95900.72;;;16.71;62.75
51123;BME280;37162;41.724;13.346;2023-04-15T08:53:19;95899.94;;;16.70;62.64
51123;BME280;37162;41.724;13.346;2023-04-15T08:55:48;95907.13;;;16.70;62.57
51123;BME280;37162;41.724;13.346;2023-04-15T08:58:15;95899.03;;;16.65;62.44
51123;BME280;37162;41.724;13.346;2023-04-15T09:00:42;95904.72;;;16.68;62.58
51123;BME280;37162;41.724;13.346;2023-04-15T09:03:08;95903.91;;;16.68;62.41
51123;BME280;37162;41.724;13.346;2023-04-15T09:05:37;95892.56;;;16.60;62.46
51123;BME280;37162;41.724;13.346;2023-04-15T09:08:03;95900.69;;;16.66;62.81
51123;BME280;37162;41.724;13.346;2023-04-15T09:10:30;95904.13;;;16.61;62.66
51123;BME280;37162;41.724;13.346;2023-04-15T09:12:57;95925.06;;;16.64;62.40
51123;BME280;37162;41.724;13.346;2023-04-15T09:15:24;95937.66;;;16.64;62.64
51123;BME280;37162;41.724;13.346;2023-04-15T09:17:49;95948.63;;;16.62;62.49
51123;BME280;37162;41.724;13.346;2023-04-15T09:20:15;95943.28;;;16.62;62.51
51123;BME280;37162;41.724;13.346;2023-04-15T09:22:44;95949.72;;;16.61;62.71
51123;BME280;37162;41.724;13.346;2023-04-15T09:27:54;95947.25;;;16.59;62.81
51123;BME280;37162;41.724;13.346;2023-04-15T09:30:20;95939.22;;;16.59;62.72
51123;BME280;37162;41.724;13.346;2023-04-15T09:46:05;95874.66;;;17.20;60.88
51123;BME280;37162;41.724;13.346;2023-04-15T09:48:31;95871.03;;;17.04;61.28
51123;BME280;37162;41.724;13.346;2023-04-15T09:50:57;95872.25;;;16.92;61.47
51123;BME280;37162;41.724;13.346;2023-04-15T09:53:24;95877.03;;;16.84;62.08
51123;BME280;37162;41.724;13.346;2023-04-15T09:55:54;95875.34;;;16.78;62.38
51123;BME280;37162;41.724;13.346;2023-04-15T09:58:21;95865.28;;;16.69;62.44
51123;BME280;37162;41.724;13.346;2023-04-15T10:00:48;95875.28;;;16.73;62.61
51123;BME280;37162;41.724;13.346;2023-04-15T10:03:25;95865.63;;;16.72;62.54
51123;BME280;37162;41.724;13.346;2023-04-15T10:05:53;95861.31;;;16.71;62.50
51123;BME280;37162;41.724;13.346;2023-04-15T10:08:21;95861.81;;;16.68;62.68
51123;BME280;37162;41.724;13.346;2023-04-15T10:10:48;95864.22;;;16.70;62.65
51123;BME280;37162;41.724;13.346;2023-04-15T10:13:17;95869.03;;;16.68;62.86
51123;BME280;37162;41.724;13.346;2023-04-15T10:15:44;95864.75;;;16.67;62.90
51123;BME280;37162;41.724;13.346;2023-04-15T10:18:14;95861.00;;;16.68;62.94
51123;BME280;37162;41.724;13.346;2023-04-15T10:20:42;95866.63;;;16.66;62.94
51123;BME280;37162;41.724;13.346;2023-04-15T10:23:08;95876.53;;;16.66;62.99
51123;BME280;37162;41.724;13.346;2023-04-15T10:25:35;95885.88;;;16.63;62.94
51123;BME280;37162;41.724;13.346;2023-04-15T10:28:01;95899.03;;;16.65;62.89
51123;BME280;37162;41.724;13.346;2023-04-15T10:30:27;95902.53;;;16.65;62.77
51123;BME280;37162;41.724;13.346;2023-04-15T10:32:53;95892.88;;;16.64;62.94
51123;BME280;37162;41.724;13.346;2023-04-15T10:35:21;95890.44;;;16.63;62.94
51123;BME280;37162;41.724;13.346;2023-04-15T10:37:47;95881.34;;;16.64;63.04
51123;BME280;37162;41.724;13.346;2023-04-15T10:40:27;95865.25;;;16.64;63.00
51123;BME280;37162;41.724;13.346;2023-04-15T10:42:59;95864.19;;;16.65;63.10
51123;BME280;37162;41.724;13.346;2023-04-15T10:45:33;95855.59;;;16.63;62.76
51123;BME280;37162;41.724;13.346;2023-04-15T10:48:01;95855.59;;;16.63;62.30
51123;BME280;37162;41.724;13.346;2023-04-15T10:50:29;95851.03;;;16.63;62.64
51123;BME280;37162;41.724;13.346;2023-04-15T10:52:56;95844.59;;;16.64;62.82
51123;BME280;37162;41.724;13.346;2023-04-15T10:55:32;95831.44;;;16.63;62.70
51123;BME280;37162;41.724;13.346;2023-04-15T10:58:00;95824.75;;;16.65;63.50
51123;BME280;37162;41.724;13.346;2023-04-15T11:00:31;95823.94;;;16.65;63.46
51123;BME280;37162;41.724;13.346;2023-04-15T11:02:59;95830.38;;;16.64;63.14
51123;BME280;37162;41.724;13.346;2023-04-15T11:08:11;95817.25;;;16.62;62.85
51123;BME280;37162;41.724;13.346;2023-04-15T11:13:15;95815.91;;;16.65;63.09
51123;BME280;37162;41.724;13.346;2023-04-15T11:15:45;95816.72;;;16.65;63.30
51123;BME280;37162;41.724;13.346;2023-04-15T11:20:45;95820.47;;;16.64;63.51
51123;BME280;37162;41.724;13.346;2023-04-15T11:23:11;95815.91;;;16.65;63.31
51123;BME280;37162;41.724;13.346;2023-04-15T11:25:37;95805.44;;;16.63;63.55
51123;BME280;37162;41.724;13.346;2023-04-15T11:28:03;95810.00;;;16.63;63.78
51123;BME280;37162;41.724;13.346;2023-04-15T11:30:30;95804.91;;;16.61;63.52
51123;BME280;37162;41.724;13.346;2023-04-15T11:32:58;95813.47;;;16.63;63.68
51123;BME280;37162;41.724;13.346;2023-04-15T11:35:24;95794.34;;;16.54;63.83
51123;BME280;37162;41.724;13.346;2023-04-15T11:37:49;95816.13;;;16.58;63.69
51123;BME280;37162;41.724;13.346;2023-04-15T11:40:16;95820.16;;;16.60;63.37
51123;BME280;37162;41.724;13.346;2023-04-15T11:42:46;95821.00;;;16.61;63.86
51123;BME280;37162;41.724;13.346;2023-04-15T11:45:13;95812.94;;;16.61;63.80
51123;BME280;37162;41.724;13.346;2023-04-15T11:47:40;95813.75;;;16.61;63.82
51123;BME280;37162;41.724;13.346;2023-04-15T11:50:19;95799.19;;;16.52;63.83
51123;BME280;37162;41.724;13.346;2023-04-15T11:52:59;95807.31;;;16.63;63.98
51123;BME280;37162;41.724;13.346;2023-04-15T11:55:26;95805.44;;;16.63;64.04
51123;BME280;37162;41.724;13.346;2023-04-15T12:00:54;95790.91;;;16.59;63.82
51123;BME280;37162;41.724;13.346;2023-04-15T12:03:24;95790.16;;;16.64;63.81
51123;BME280;37162;41.724;13.346;2023-04-15T12:11:15;95796.31;;;16.64;64.04
51123;BME280;37162;41.724;13.346;2023-04-15T12:13:48;95790.97;;;16.64;64.03
51123;BME280;37162;41.724;13.346;2023-04-15T12:16:18;95785.38;;;16.66;63.96
51123;BME280;37162;41.724;13.346;2023-04-15T12:18:53;95782.09;;;16.64;64.04
51123;BME280;37162;41.724;13.346;2023-04-15T12:21:23;95802.25;;;16.66;64.12
51123;BME280;37162;41.724;13.346;2023-04-15T12:23:50;95790.72;;;16.66;64.11
51123;BME280;37162;41.724;13.346;2023-04-15T12:26:16;95784.28;;;16.67;64.13
51123;BME280;37162;41.724;13.346;2023-04-15T12:28:42;95777.06;;;16.67;64.13
51123;BME280;37162;41.724;13.346;2023-04-15T12:31:09;95767.13;;;16.68;64.13
51123;BME280;37162;41.724;13.346;2023-04-15T12:33:35;95755.56;;;16.62;64.04
51123;BME280;37162;41.724;13.346;2023-04-15T12:36:01;95776.56;;;16.70;64.00
51123;BME280;37162;41.724;13.346;2023-04-15T12:38:27;95775.47;;;16.71;64.02
51123;BME280;37162;41.724;13.346;2023-04-15T12:40:53;95773.38;;;16.73;64.16
51123;BME280;37162;41.724;13.346;2023-04-15T12:43:22;95768.28;;;16.72;64.48
51123;BME280;37162;41.724;13.346;2023-04-15T12:45:48;95771.25;;;16.75;64.45
51123;BME280;37162;41.724;13.346;2023-04-15T12:48:14;95778.25;;;16.76;64.54
51123;BME280;37162;41.724;13.346;2023-04-15T12:50:39;95785.47;;;16.76;64.62
51123;BME280;37162;41.724;13.346;2023-04-15T12:53:05;95791.66;;;16.76;64.40
51123;BME280;37162;41.724;13.346;2023-04-15T12:55:30;95791.66;;;16.76;64.48
51123;BME280;37162;41.724;13.346;2023-04-15T12:57:56;95785.22;;;16.77;64.12
51123;BME280;37162;41.724;13.346;2023-04-15T13:00:22;95776.06;;;16.73;64.43
51123;BME280;37162;41.724;13.346;2023-04-15T13:02:48;95788.16;;;16.76;64.22
51123;BME280;37162;41.724;13.346;2023-04-15T13:05:13;95781.72;;;16.77;64.26
51123;BME280;37162;41.724;13.346;2023-04-15T13:07:42;95778.25;;;16.76;64.44
51123;BME280;37162;41.724;13.346;2023-04-15T13:10:08;95775.56;;;16.76;64.35
51123;BME280;37162;41.724;13.346;2023-04-15T13:12:34;95777.16;;;16.77;64.47
51123;BME280;37162;41.724;13.346;2023-04-15T13:15:02;95764.75;;;16.71;64.52
51123;BME280;37162;41.724;13.346;2023-04-15T13:17:28;95770.72;;;16.78;64.24
51123;BME280;37162;41.724;13.346;2023-04-15T13:19:53;95767.25;;;16.78;64.25
51123;BME280;37162;41.724;13.346;2023-04-15T13:22:19;95768.03;;;16.78;64.34
51123;BME280;37162;41.724;13.346;2023-04-15T13:24:44;95776.09;;;16.78;64.32
51123;BME280;37162;41.724;13.346;2023-04-15T13:27:10;95769.94;;;16.78;64.07
51123;BME280;37162;41.724;13.346;2023-04-15T13:29:35;95762.69;;;16.78;64.39
51123;BME280;37162;41.724;13.346;2023-04-15T13:32:01;95757.09;;;16.80;64.43